sensor_id;sensor_type;location;lat;lon;timestamp;P1;durP1;ratioP1;P2;durP2;ratioP2
20491;SDS011;10404;51.468;6.762;2023-07-13T00:00:38;3.00;;;2.70;;
20491;SDS011;10404;51.468;6.762;2023-07-13T00:03:04;3.17;;;2.03;;
20491;SDS011;10404;51.468;6.762;2023-07-13T00:05:30;2.55;;;2.00;;
20491;SDS011;10404;51.468;6.762;2023-07-13T00:07:56;3.55;;;2.15;;
20491;SDS011;10404;51.468;6.762;2023-07-13T00:10:21;2.47;;;2.28;;
20491;SDS011;10404;51.468;6.762;2023-07-13T00:12:48;4.15;;;2.03;;
20491;SDS011;10404;51.468;6.762;2023-07-13T00:15:19;3.35;;;2.40;;
20491;SDS011;10404;51.468;6.762;2023-07-13T00:17:48;4.38;;;1.70;;
20491;SDS011;10404;51.468;6.762;2023-07-13T00:20:19;3.10;;;1.98;;
20491;SDS011;10404;51.468;6.762;2023-07-13T00:22:47;3.72;;;1.60;;
20491;SDS011;10404;51.468;6.762;2023-07-13T00:25:13;3.10;;;2.03;;
20491;SDS011;10404;51.468;6.762;2023-07-13T00:27:41;4.80;;;1.80;;
20491;SDS011;10404;51.468;6.762;2023-07-13T00:30:07;2.67;;;1.63;;
20491;SDS011;10404;51.468;6.762;2023-07-13T00:32:34;2.53;;;2.30;;
20491;SDS011;10404;51.468;6.762;2023-07-13T00:35:00;3.08;;;1.75;;
20491;SDS011;10404;51.468;6.762;2023-07-13T00:37:26;4.63;;;1.73;;
20491;SDS011;10404;51.468;6.762;2023-07-13T00:39:52;2.80;;;1.50;;
20491;SDS011;10404;51.468;6.762;2023-07-13T00:42:17;3.13;;;1.40;;
20491;SDS011;10404;51.468;6.762;2023-07-13T00:47:30;2.58;;;1.85;;
20491;SDS011;10404;51.468;6.762;2023-07-13T00:49:56;3.15;;;1.85;;
20491;SDS011;10404;51.468;6.762;2023-07-13T00:52:22;2.78;;;2.47;;
20491;SDS011;10404;51.468;6.762;2023-07-13T00:54:48;2.70;;;1.80;;
20491;SDS011;10404;51.468;6.762;2023-07-13T00:57:15;1.90;;;1.42;;
20491;SDS011;10404;51.468;6.762;2023-07-13T00:59:46;2.60;;;1.77;;
20491;SDS011;10404;51.468;6.762;2023-07-13T01:02:15;3.20;;;1.85;;
20491;SDS011;10404;51.468;6.762;2023-07-13T01:04:42;1.92;;;1.67;;
20491;SDS011;10404;51.468;6.762;2023-07-13T01:07:09;3.50;;;1.60;;
20491;SDS011;10404;51.468;6.762;2023-07-13T01:09:36;2.25;;;1.70;;
20491;SDS011;10404;51.468;6.762;2023-07-13T01:12:02;2.20;;;1.70;;
20491;SDS011;10404;51.468;6.762;2023-07-13T01:14:28;2.63;;;2.08;;
20491;SDS011;10404;51.468;6.762;2023-07-13T01:16:54;2.60;;;1.80;;
20491;SDS011;10404;51.468;6.762;2023-07-13T01:22:01;3.78;;;2.00;;
20491;SDS011;10404;51.468;6.762;2023-07-13T01:24:28;3.80;;;1.42;;
20491;SDS011;10404;51.468;6.762;2023-07-13T01:26:54;2.15;;;1.58;;
20491;SDS011;10404;51.468;6.762;2023-07-13T01:29:20;2.92;;;1.80;;
20491;SDS011;10404;51.468;6.762;2023-07-13T01:31:46;3.15;;;1.73;;
20491;SDS011;10404;51.468;6.762;2023-07-13T01:34:12;2.97;;;2.08;;
20491;SDS011;10404;51.468;6.762;2023-07-13T01:36:37;2.60;;;1.58;;
20491;SDS011;10404;51.468;6.762;2023-07-13T01:39:03;3.22;;;1.45;;
20491;SDS011;10404;51.468;6.762;2023-07-13T01:41:29;2.28;;;1.75;;
20491;SDS011;10404;51.468;6.762;2023-07-13T01:43:55;2.17;;;1.60;;
20491;SDS011;10404;51.468;6.762;2023-07-13T01:46:20;3.40;;;1.98;;
20491;SDS011;10404;51.468;6.762;2023-07-13T01:48:46;2.75;;;1.40;;
20491;SDS011;10404;51.468;6.762;2023-07-13T01:51:12;3.47;;;2.10;;
20491;SDS011;10404;51.468;6.762;2023-07-13T01:53:38;3.00;;;1.52;;
20491;SDS011;10404;51.468;6.762;2023-07-13T01:56:04;1.83;;;1.38;;
20491;SDS011;10404;51.468;6.762;2023-07-13T01:58:29;3.17;;;1.50;;
20491;SDS011;10404;51.468;6.762;2023-07-13T02:00:55;2.17;;;1.50;;
20491;SDS011;10404;51.468;6.762;2023-07-13T02:03:21;3.20;;;1.67;;
20491;SDS011;10404;51.468;6.762;2023-07-13T02:05:46;2.42;;;2.00;;
20491;SDS011;10404;51.468;6.762;2023-07-13T02:08:12;2.15;;;1.50;;
20491;SDS011;10404;51.468;6.762;2023-07-13T02:10:38;2.85;;;1.80;;
20491;SDS011;10404;51.468;6.762;2023-07-13T02:13:05;2.75;;;1.60;;
20491;SDS011;10404;51.468;6.762;2023-07-13T02:15:31;3.17;;;1.75;;
20491;SDS011;10404;51.468;6.762;2023-07-13T02:17:57;3.30;;;1.80;;
20491;SDS011;10404;51.468;6.762;2023-07-13T02:20:23;3.30;;;2.05;;
20491;SDS011;10404;51.468;6.762;2023-07-13T02:22:49;2.33;;;1.77;;
20491;SDS011;10404;51.468;6.762;2023-07-13T02:25:15;2.60;;;1.45;;
20491;SDS011;10404;51.468;6.762;2023-07-13T02:27:40;3.38;;;1.52;;
20491;SDS011;10404;51.468;6.762;2023-07-13T02:30:06;2.47;;;1.80;;
20491;SDS011;10404;51.468;6.762;2023-07-13T02:32:33;1.75;;;1.40;;
20491;SDS011;10404;51.468;6.762;2023-07-13T02:34:58;2.75;;;1.75;;
20491;SDS011;10404;51.468;6.762;2023-07-13T02:37:24;3.13;;;1.50;;
20491;SDS011;10404;51.468;6.762;2023-07-13T02:39:50;4.70;;;1.45;;
20491;SDS011;10404;51.468;6.762;2023-07-13T02:42:15;2.60;;;1.38;;
20491;SDS011;10404;51.468;6.762;2023-07-13T02:44:41;2.58;;;1.30;;
20491;SDS011;10404;51.468;6.762;2023-07-13T02:47:07;1.95;;;1.02;;
20491;SDS011;10404;51.468;6.762;2023-07-13T02:49:33;2.22;;;0.90;;
20491;SDS011;10404;51.468;6.762;2023-07-13T02:51:58;2.67;;;1.20;;
20491;SDS011;10404;51.468;6.762;2023-07-13T02:54:24;3.50;;;1.73;;
20491;SDS011;10404;51.468;6.762;2023-07-13T02:56:50;3.45;;;1.48;;
20491;SDS011;10404;51.468;6.762;2023-07-13T02:59:16;3.15;;;1.30;;
20491;SDS011;10404;51.468;6.762;2023-07-13T03:01:41;2.13;;;1.27;;
20491;SDS011;10404;51.468;6.762;2023-07-13T03:04:07;2.83;;;1.38;;
20491;SDS011;10404;51.468;6.762;2023-07-13T03:06:33;3.55;;;1.70;;
20491;SDS011;10404;51.468;6.762;2023-07-13T03:08:59;2.05;;;1.58;;
20491;SDS011;10404;51.468;6.762;2023-07-13T03:11:25;2.58;;;1.67;;
20491;SDS011;10404;51.468;6.762;2023-07-13T03:13:51;3.55;;;1.80;;
20491;SDS011;10404;51.468;6.762;2023-07-13T03:16:17;3.30;;;1.70;;
20491;SDS011;10404;51.468;6.762;2023-07-13T03:18:43;2.50;;;1.45;;
20491;SDS011;10404;51.468;6.762;2023-07-13T03:21:08;2.30;;;1.63;;
20491;SDS011;10404;51.468;6.762;2023-07-13T03:23:35;3.33;;;1.80;;
20491;SDS011;10404;51.468;6.762;2023-07-13T03:26:11;3.83;;;2.35;;
20491;SDS011;10404;51.468;6.762;2023-07-13T03:28:46;3.35;;;1.65;;
20491;SDS011;10404;51.468;6.762;2023-07-13T03:31:17;3.30;;;1.65;;
20491;SDS011;10404;51.468;6.762;2023-07-13T03:33:47;3.00;;;1.30;;
20491;SDS011;10404;51.468;6.762;2023-07-13T03:36:17;2.85;;;1.40;;
20491;SDS011;10404;51.468;6.762;2023-07-13T03:38:49;2.53;;;1.38;;
20491;SDS011;10404;51.468;6.762;2023-07-13T03:41:18;2.88;;;1.92;;
20491;SDS011;10404;51.468;6.762;2023-07-13T03:43:44;2.17;;;1.73;;
20491;SDS011;10404;51.468;6.762;2023-07-13T03:46:09;3.42;;;1.77;;
20491;SDS011;10404;51.468;6.762;2023-07-13T03:48:35;2.30;;;1.60;;
20491;SDS011;10404;51.468;6.762;2023-07-13T03:51:01;2.78;;;1.50;;
20491;SDS011;10404;51.468;6.762;2023-07-13T03:53:27;2.47;;;1.75;;
20491;SDS011;10404;51.468;6.762;2023-07-13T03:55:52;2.75;;;1.83;;
20491;SDS011;10404;51.468;6.762;2023-07-13T03:58:32;2.42;;;1.85;;
20491;SDS011;10404;51.468;6.762;2023-07-13T04:00:59;2.85;;;1.52;;
20491;SDS011;10404;51.468;6.762;2023-07-13T04:03:26;2.75;;;1.67;;
20491;SDS011;10404;51.468;6.762;2023-07-13T04:05:53;2.13;;;1.40;;
20491;SDS011;10404;51.468;6.762;2023-07-13T04:08:28;2.47;;;1.60;;
20491;SDS011;10404;51.468;6.762;2023-07-13T04:10:56;3.80;;;1.75;;
20491;SDS011;10404;51.468;6.762;2023-07-13T04:13:23;2.17;;;1.98;;
20491;SDS011;10404;51.468;6.762;2023-07-13T04:15:50;3.97;;;1.55;;
20491;SDS011;10404;51.468;6.762;2023-07-13T04:18:16;3.42;;;1.70;;
20491;SDS011;10404;51.468;6.762;2023-07-13T04:20:42;3.50;;;1.30;;
20491;SDS011;10404;51.468;6.762;2023-07-13T04:23:07;3.30;;;1.95;;
20491;SDS011;10404;51.468;6.762;2023-07-13T04:25:33;3.08;;;1.90;;
20491;SDS011;10404;51.468;6.762;2023-07-13T04:27:59;4.40;;;1.85;;
20491;SDS011;10404;51.468;6.762;2023-07-13T04:30:25;3.08;;;1.55;;
20491;SDS011;10404;51.468;6.762;2023-07-13T04:32:51;2.33;;;1.58;;
20491;SDS011;10404;51.468;6.762;2023-07-13T04:35:18;2.90;;;1.83;;
20491;SDS011;10404;51.468;6.762;2023-07-13T04:37:46;4.85;;;1.80;;
20491;SDS011;10404;51.468;6.762;2023-07-13T04:40:13;2.70;;;2.00;;
20491;SDS011;10404;51.468;6.762;2023-07-13T04:42:39;2.00;;;1.80;;
20491;SDS011;10404;51.468;6.762;2023-07-13T04:45:05;4.70;;;1.67;;
20491;SDS011;10404;51.468;6.762;2023-07-13T04:47:32;3.50;;;2.05;;
20491;SDS011;10404;51.468;6.762;2023-07-13T04:49:57;2.03;;;1.77;;
20491;SDS011;10404;51.468;6.762;2023-07-13T04:52:23;3.85;;;2.90;;
20491;SDS011;10404;51.468;6.762;2023-07-13T04:54:49;3.05;;;2.15;;
20491;SDS011;10404;51.468;6.762;2023-07-13T04:57:15;4.40;;;2.25;;
20491;SDS011;10404;51.468;6.762;2023-07-13T04:59:40;4.85;;;2.13;;
20491;SDS011;10404;51.468;6.762;2023-07-13T05:02:06;3.03;;;2.05;;
20491;SDS011;10404;51.468;6.762;2023-07-13T05:04:32;4.47;;;2.92;;
20491;SDS011;10404;51.468;6.762;2023-07-13T05:06:58;4.72;;;2.35;;
20491;SDS011;10404;51.468;6.762;2023-07-13T05:09:24;5.47;;;2.22;;
20491;SDS011;10404;51.468;6.762;2023-07-13T05:11:50;3.90;;;1.77;;
20491;SDS011;10404;51.468;6.762;2023-07-13T05:14:15;4.82;;;2.40;;
20491;SDS011;10404;51.468;6.762;2023-07-13T05:16:41;3.95;;;1.60;;
20491;SDS011;10404;51.468;6.762;2023-07-13T05:19:08;3.83;;;2.40;;
20491;SDS011;10404;51.468;6.762;2023-07-13T05:21:34;4.72;;;2.20;;
20491;SDS011;10404;51.468;6.762;2023-07-13T05:23:59;3.65;;;2.00;;
20491;SDS011;10404;51.468;6.762;2023-07-13T05:26:25;4.35;;;2.55;;
20491;SDS011;10404;51.468;6.762;2023-07-13T05:28:51;5.10;;;2.80;;
20491;SDS011;10404;51.468;6.762;2023-07-13T05:31:16;4.68;;;2.20;;
20491;SDS011;10404;51.468;6.762;2023-07-13T05:33:42;3.85;;;2.00;;
20491;SDS011;10404;51.468;6.762;2023-07-13T05:36:08;3.50;;;2.05;;
20491;SDS011;10404;51.468;6.762;2023-07-13T05:38:34;4.63;;;2.40;;
20491;SDS011;10404;51.468;6.762;2023-07-13T05:40:59;2.40;;;2.05;;
20491;SDS011;10404;51.468;6.762;2023-07-13T05:43:25;2.65;;;2.13;;
20491;SDS011;10404;51.468;6.762;2023-07-13T05:45:52;4.90;;;2.00;;
20491;SDS011;10404;51.468;6.762;2023-07-13T05:48:19;4.13;;;3.05;;
20491;SDS011;10404;51.468;6.762;2023-07-13T05:50:45;3.95;;;2.55;;
20491;SDS011;10404;51.468;6.762;2023-07-13T05:53:11;3.60;;;2.55;;
20491;SDS011;10404;51.468;6.762;2023-07-13T05:55:41;3.75;;;1.70;;
20491;SDS011;10404;51.468;6.762;2023-07-13T05:58:08;3.83;;;1.95;;
20491;SDS011;10404;51.468;6.762;2023-07-13T06:00:33;2.60;;;1.98;;
20491;SDS011;10404;51.468;6.762;2023-07-13T06:02:59;3.90;;;1.90;;
20491;SDS011;10404;51.468;6.762;2023-07-13T06:05:24;3.03;;;2.00;;
20491;SDS011;10404;51.468;6.762;2023-07-13T06:07:50;4.45;;;2.40;;
20491;SDS011;10404;51.468;6.762;2023-07-13T06:10:16;4.45;;;2.10;;
20491;SDS011;10404;51.468;6.762;2023-07-13T06:12:41;2.80;;;2.03;;
20491;SDS011;10404;51.468;6.762;2023-07-13T06:15:07;4.15;;;2.13;;
20491;SDS011;10404;51.468;6.762;2023-07-13T06:17:33;5.22;;;1.80;;
20491;SDS011;10404;51.468;6.762;2023-07-13T06:19:59;3.83;;;2.15;;
20491;SDS011;10404;51.468;6.762;2023-07-13T06:22:24;5.40;;;2.42;;
20491;SDS011;10404;51.468;6.762;2023-07-13T06:24:50;3.95;;;2.15;;
20491;SDS011;10404;51.468;6.762;2023-07-13T06:27:15;5.45;;;2.00;;
20491;SDS011;10404;51.468;6.762;2023-07-13T06:29:41;3.63;;;1.80;;
20491;SDS011;10404;51.468;6.762;2023-07-13T06:32:10;4.82;;;2.17;;
20491;SDS011;10404;51.468;6.762;2023-07-13T06:34:35;3.72;;;1.92;;
20491;SDS011;10404;51.468;6.762;2023-07-13T06:37:01;4.03;;;1.95;;
20491;SDS011;10404;51.468;6.762;2023-07-13T06:39:27;4.93;;;2.00;;
20491;SDS011;10404;51.468;6.762;2023-07-13T06:41:52;4.28;;;1.92;;
20491;SDS011;10404;51.468;6.762;2023-07-13T06:44:18;6.68;;;2.42;;
20491;SDS011;10404;51.468;6.762;2023-07-13T06:46:43;3.95;;;2.35;;
20491;SDS011;10404;51.468;6.762;2023-07-13T06:49:09;3.38;;;2.40;;
20491;SDS011;10404;51.468;6.762;2023-07-13T06:51:35;4.10;;;2.67;;
20491;SDS011;10404;51.468;6.762;2023-07-13T06:54:00;4.82;;;2.38;;
20491;SDS011;10404;51.468;6.762;2023-07-13T06:56:26;5.07;;;2.33;;
20491;SDS011;10404;51.468;6.762;2023-07-13T06:58:51;3.78;;;2.00;;
20491;SDS011;10404;51.468;6.762;2023-07-13T07:01:17;4.13;;;2.33;;
20491;SDS011;10404;51.468;6.762;2023-07-13T07:03:43;5.13;;;3.03;;
20491;SDS011;10404;51.468;6.762;2023-07-13T07:06:12;3.60;;;2.10;;
20491;SDS011;10404;51.468;6.762;2023-07-13T07:08:40;4.97;;;1.90;;
20491;SDS011;10404;51.468;6.762;2023-07-13T07:11:08;9.23;;;3.22;;
20491;SDS011;10404;51.468;6.762;2023-07-13T07:13:36;3.35;;;2.42;;
20491;SDS011;10404;51.468;6.762;2023-07-13T07:16:02;4.47;;;2.30;;
20491;SDS011;10404;51.468;6.762;2023-07-13T07:18:28;4.03;;;2.35;;
20491;SDS011;10404;51.468;6.762;2023-07-13T07:20:53;7.03;;;2.67;;
20491;SDS011;10404;51.468;6.762;2023-07-13T07:23:19;4.47;;;2.55;;
20491;SDS011;10404;51.468;6.762;2023-07-13T07:25:44;5.57;;;2.28;;
20491;SDS011;10404;51.468;6.762;2023-07-13T07:28:11;6.78;;;2.50;;
20491;SDS011;10404;51.468;6.762;2023-07-13T07:30:41;5.75;;;2.10;;
20491;SDS011;10404;51.468;6.762;2023-07-13T07:33:08;4.53;;;2.60;;
20491;SDS011;10404;51.468;6.762;2023-07-13T07:35:34;6.25;;;2.88;;
20491;SDS011;10404;51.468;6.762;2023-07-13T07:37:59;4.03;;;2.25;;
20491;SDS011;10404;51.468;6.762;2023-07-13T07:40:25;6.47;;;2.53;;
20491;SDS011;10404;51.468;6.762;2023-07-13T07:42:51;3.72;;;2.75;;
20491;SDS011;10404;51.468;6.762;2023-07-13T07:45:17;5.22;;;2.72;;
20491;SDS011;10404;51.468;6.762;2023-07-13T07:47:42;4.15;;;2.47;;
20491;SDS011;10404;51.468;6.762;2023-07-13T07:50:08;5.53;;;2.72;;
20491;SDS011;10404;51.468;6.762;2023-07-13T07:52:34;4.30;;;3.33;;
20491;SDS011;10404;51.468;6.762;2023-07-13T07:55:00;4.60;;;2.90;;
20491;SDS011;10404;51.468;6.762;2023-07-13T07:57:26;4.30;;;3.45;;
20491;SDS011;10404;51.468;6.762;2023-07-13T07:59:51;5.18;;;3.03;;
20491;SDS011;10404;51.468;6.762;2023-07-13T08:02:17;6.95;;;3.40;;
20491;SDS011;10404;51.468;6.762;2023-07-13T08:04:42;4.07;;;2.95;;
20491;SDS011;10404;51.468;6.762;2023-07-13T08:07:08;4.38;;;3.25;;
20491;SDS011;10404;51.468;6.762;2023-07-13T08:09:34;5.40;;;3.33;;
20491;SDS011;10404;51.468;6.762;2023-07-13T08:12:00;4.65;;;3.00;;
20491;SDS011;10404;51.468;6.762;2023-07-13T08:14:25;6.78;;;2.92;;
20491;SDS011;10404;51.468;6.762;2023-07-13T08:16:51;5.25;;;2.63;;
20491;SDS011;10404;51.468;6.762;2023-07-13T08:19:17;6.28;;;3.40;;
20491;SDS011;10404;51.468;6.762;2023-07-13T08:21:42;5.28;;;2.75;;
20491;SDS011;10404;51.468;6.762;2023-07-13T08:24:08;4.32;;;3.05;;
20491;SDS011;10404;51.468;6.762;2023-07-13T08:26:34;4.38;;;2.80;;
20491;SDS011;10404;51.468;6.762;2023-07-13T08:29:00;3.88;;;2.53;;
20491;SDS011;10404;51.468;6.762;2023-07-13T08:31:25;4.05;;;3.03;;
20491;SDS011;10404;51.468;6.762;2023-07-13T08:33:51;3.63;;;2.45;;
20491;SDS011;10404;51.468;6.762;2023-07-13T08:36:17;4.55;;;3.05;;
20491;SDS011;10404;51.468;6.762;2023-07-13T08:38:43;3.22;;;2.50;;
20491;SDS011;10404;51.468;6.762;2023-07-13T08:41:17;4.10;;;2.65;;
20491;SDS011;10404;51.468;6.762;2023-07-13T08:43:45;5.07;;;2.58;;
20491;SDS011;10404;51.468;6.762;2023-07-13T08:46:34;5.72;;;2.72;;
20491;SDS011;10404;51.468;6.762;2023-07-13T08:49:07;4.82;;;2.40;;
20491;SDS011;10404;51.468;6.762;2023-07-13T08:51:43;5.75;;;2.90;;
20491;SDS011;10404;51.468;6.762;2023-07-13T08:54:27;4.65;;;3.15;;
20491;SDS011;10404;51.468;6.762;2023-07-13T08:56:59;4.85;;;3.15;;
20491;SDS011;10404;51.468;6.762;2023-07-13T09:02:10;4.30;;;2.70;;
20491;SDS011;10404;51.468;6.762;2023-07-13T09:05:02;4.43;;;2.55;;
20491;SDS011;10404;51.468;6.762;2023-07-13T09:07:48;4.60;;;2.70;;
20491;SDS011;10404;51.468;6.762;2023-07-13T09:10:27;2.88;;;2.47;;
20491;SDS011;10404;51.468;6.762;2023-07-13T09:15:34;5.32;;;3.13;;
20491;SDS011;10404;51.468;6.762;2023-07-13T09:20:46;3.38;;;2.50;;
20491;SDS011;10404;51.468;6.762;2023-07-13T09:23:37;5.32;;;3.00;;
20491;SDS011;10404;51.468;6.762;2023-07-13T09:28:39;4.72;;;3.22;;
20491;SDS011;10404;51.468;6.762;2023-07-13T09:31:10;4.88;;;3.25;;
20491;SDS011;10404;51.468;6.762;2023-07-13T09:33:37;5.60;;;2.90;;
20491;SDS011;10404;51.468;6.762;2023-07-13T09:36:15;5.32;;;3.17;;
20491;SDS011;10404;51.468;6.762;2023-07-13T09:38:48;4.50;;;2.75;;
20491;SDS011;10404;51.468;6.762;2023-07-13T09:44:00;4.40;;;2.90;;
20491;SDS011;10404;51.468;6.762;2023-07-13T09:46:54;4.28;;;3.00;;
20491;SDS011;10404;51.468;6.762;2023-07-13T09:49:24;4.25;;;3.15;;
20491;SDS011;10404;51.468;6.762;2023-07-13T09:51:57;4.65;;;3.53;;
20491;SDS011;10404;51.468;6.762;2023-07-13T09:54:26;5.43;;;3.47;;
20491;SDS011;10404;51.468;6.762;2023-07-13T09:56:58;5.45;;;3.83;;
20491;SDS011;10404;51.468;6.762;2023-07-13T09:59:27;4.53;;;2.85;;
20491;SDS011;10404;51.468;6.762;2023-07-13T10:02:22;5.93;;;2.78;;
20491;SDS011;10404;51.468;6.762;2023-07-13T10:04:58;6.15;;;2.90;;
20491;SDS011;10404;51.468;6.762;2023-07-13T10:07:32;6.60;;;3.08;;
20491;SDS011;10404;51.468;6.762;2023-07-13T10:10:12;4.40;;;2.92;;
20491;SDS011;10404;51.468;6.762;2023-07-13T10:12:47;5.30;;;3.10;;
20491;SDS011;10404;51.468;6.762;2023-07-13T10:15:15;5.38;;;3.75;;
20491;SDS011;10404;51.468;6.762;2023-07-13T10:17:46;4.05;;;2.50;;
20491;SDS011;10404;51.468;6.762;2023-07-13T10:20:12;5.15;;;3.17;;
20491;SDS011;10404;51.468;6.762;2023-07-13T10:22:49;4.93;;;3.10;;
20491;SDS011;10404;51.468;6.762;2023-07-13T10:25:23;4.22;;;3.40;;
20491;SDS011;10404;51.468;6.762;2023-07-13T10:27:56;5.38;;;3.35;;
20491;SDS011;10404;51.468;6.762;2023-07-13T10:30:28;3.55;;;3.20;;
20491;SDS011;10404;51.468;6.762;2023-07-13T10:33:01;4.18;;;2.75;;
20491;SDS011;10404;51.468;6.762;2023-07-13T10:35:33;4.43;;;3.25;;
20491;SDS011;10404;51.468;6.762;2023-07-13T10:38:01;4.78;;;3.35;;
20491;SDS011;10404;51.468;6.762;2023-07-13T10:40:39;5.28;;;2.95;;
20491;SDS011;10404;51.468;6.762;2023-07-13T10:43:20;6.75;;;3.53;;
20491;SDS011;10404;51.468;6.762;2023-07-13T10:45:48;3.90;;;2.67;;
20491;SDS011;10404;51.468;6.762;2023-07-13T10:48:15;4.93;;;2.65;;
20491;SDS011;10404;51.468;6.762;2023-07-13T10:50:44;3.08;;;2.47;;
20491;SDS011;10404;51.468;6.762;2023-07-13T11:01:29;3.75;;;2.53;;
20491;SDS011;10404;51.468;6.762;2023-07-13T11:03:36;4.50;;;3.17;;
20491;SDS011;10404;51.468;6.762;2023-07-13T11:06:09;3.85;;;2.67;;
20491;SDS011;10404;51.468;6.762;2023-07-13T11:18:47;4.45;;;2.70;;
20491;SDS011;10404;51.468;6.762;2023-07-13T11:21:26;4.15;;;3.08;;
20491;SDS011;10404;51.468;6.762;2023-07-13T11:31:43;4.95;;;2.97;;
20491;SDS011;10404;51.468;6.762;2023-07-13T11:34:21;4.55;;;3.38;;
20491;SDS011;10404;51.468;6.762;2023-07-13T11:36:53;3.28;;;2.25;;
20491;SDS011;10404;51.468;6.762;2023-07-13T11:42:04;3.45;;;2.55;;
20491;SDS011;10404;51.468;6.762;2023-07-13T11:44:34;4.75;;;3.03;;
20491;SDS011;10404;51.468;6.762;2023-07-13T11:47:07;3.88;;;2.88;;
20491;SDS011;10404;51.468;6.762;2023-07-13T11:49:43;4.93;;;3.03;;
20491;SDS011;10404;51.468;6.762;2023-07-13T11:52:22;2.83;;;2.58;;
20491;SDS011;10404;51.468;6.762;2023-07-13T11:54:56;4.85;;;2.40;;
20491;SDS011;10404;51.468;6.762;2023-07-13T11:57:26;4.85;;;3.50;;
20491;SDS011;10404;51.468;6.762;2023-07-13T11:59:53;4.35;;;2.90;;
20491;SDS011;10404;51.468;6.762;2023-07-13T12:02:28;4.55;;;3.25;;
20491;SDS011;10404;51.468;6.762;2023-07-13T12:04:57;3.70;;;2.63;;
20491;SDS011;10404;51.468;6.762;2023-07-13T12:07:24;3.80;;;2.28;;
20491;SDS011;10404;51.468;6.762;2023-07-13T12:12:33;4.85;;;2.78;;
20491;SDS011;10404;51.468;6.762;2023-07-13T12:14:58;3.38;;;2.20;;
20491;SDS011;10404;51.468;6.762;2023-07-13T12:17:24;3.85;;;2.90;;
20491;SDS011;10404;51.468;6.762;2023-07-13T12:19:51;3.88;;;2.40;;
20491;SDS011;10404;51.468;6.762;2023-07-13T12:22:18;5.57;;;2.85;;
20491;SDS011;10404;51.468;6.762;2023-07-13T12:24:45;3.78;;;2.40;;
20491;SDS011;10404;51.468;6.762;2023-07-13T12:27:30;4.03;;;3.15;;
20491;SDS011;10404;51.468;6.762;2023-07-13T12:30:01;2.80;;;2.15;;
20491;SDS011;10404;51.468;6.762;2023-07-13T12:32:30;3.67;;;2.65;;
20491;SDS011;10404;51.468;6.762;2023-07-13T12:35:15;2.15;;;1.90;;
20491;SDS011;10404;51.468;6.762;2023-07-13T12:37:42;4.57;;;2.45;;
20491;SDS011;10404;51.468;6.762;2023-07-13T12:40:13;3.50;;;2.70;;
20491;SDS011;10404;51.468;6.762;2023-07-13T12:42:48;5.05;;;2.28;;
20491;SDS011;10404;51.468;6.762;2023-07-13T12:45:20;4.40;;;2.47;;
20491;SDS011;10404;51.468;6.762;2023-07-13T12:47:54;2.80;;;1.83;;
20491;SDS011;10404;51.468;6.762;2023-07-13T12:50:29;3.40;;;2.38;;
20491;SDS011;10404;51.468;6.762;2023-07-13T12:53:09;4.07;;;2.63;;
20491;SDS011;10404;51.468;6.762;2023-07-13T12:55:49;4.40;;;2.17;;
20491;SDS011;10404;51.468;6.762;2023-07-13T12:58:39;4.95;;;2.75;;
20491;SDS011;10404;51.468;6.762;2023-07-13T13:01:07;3.25;;;2.33;;
20491;SDS011;10404;51.468;6.762;2023-07-13T13:08:32;2.88;;;2.50;;
20491;SDS011;10404;51.468;6.762;2023-07-13T13:11:00;3.70;;;2.10;;
20491;SDS011;10404;51.468;6.762;2023-07-13T13:13:26;4.15;;;2.83;;
20491;SDS011;10404;51.468;6.762;2023-07-13T13:15:52;3.42;;;2.55;;
20491;SDS011;10404;51.468;6.762;2023-07-13T13:18:19;4.40;;;2.83;;
20491;SDS011;10404;51.468;6.762;2023-07-13T13:20:47;3.53;;;1.88;;
20491;SDS011;10404;51.468;6.762;2023-07-13T13:23:14;3.53;;;2.42;;
20491;SDS011;10404;51.468;6.762;2023-07-13T13:25:45;3.95;;;2.22;;
20491;SDS011;10404;51.468;6.762;2023-07-13T13:28:16;4.13;;;2.35;;
20491;SDS011;10404;51.468;6.762;2023-07-13T13:30:44;2.45;;;2.10;;
20491;SDS011;10404;51.468;6.762;2023-07-13T13:33:12;4.10;;;2.95;;
20491;SDS011;10404;51.468;6.762;2023-07-13T13:35:40;3.78;;;2.22;;
20491;SDS011;10404;51.468;6.762;2023-07-13T13:38:16;2.08;;;1.88;;
20491;SDS011;10404;51.468;6.762;2023-07-13T13:40:44;3.10;;;2.10;;
20491;SDS011;10404;51.468;6.762;2023-07-13T13:43:13;2.85;;;2.28;;
20491;SDS011;10404;51.468;6.762;2023-07-13T13:45:55;4.13;;;2.38;;
20491;SDS011;10404;51.468;6.762;2023-07-13T13:48:32;4.50;;;2.58;;
20491;SDS011;10404;51.468;6.762;2023-07-13T13:51:01;2.95;;;2.30;;
20491;SDS011;10404;51.468;6.762;2023-07-13T13:53:31;5.10;;;3.03;;
20491;SDS011;10404;51.468;6.762;2023-07-13T13:55:56;3.67;;;2.35;;
20491;SDS011;10404;51.468;6.762;2023-07-13T13:58:22;3.92;;;3.20;;
20491;SDS011;10404;51.468;6.762;2023-07-13T14:00:47;3.95;;;2.55;;
20491;SDS011;10404;51.468;6.762;2023-07-13T14:03:18;3.72;;;2.55;;
20491;SDS011;10404;51.468;6.762;2023-07-13T14:05:45;4.20;;;2.90;;
20491;SDS011;10404;51.468;6.762;2023-07-13T14:08:15;3.80;;;3.50;;
20491;SDS011;10404;51.468;6.762;2023-07-13T14:10:43;3.80;;;2.65;;
20491;SDS011;10404;51.468;6.762;2023-07-13T14:13:19;4.85;;;2.95;;
20491;SDS011;10404;51.468;6.762;2023-07-13T14:15:51;4.70;;;2.95;;
20491;SDS011;10404;51.468;6.762;2023-07-13T14:18:17;3.80;;;2.92;;
20491;SDS011;10404;51.468;6.762;2023-07-13T14:20:46;6.05;;;3.03;;
20491;SDS011;10404;51.468;6.762;2023-07-13T14:23:13;5.22;;;2.67;;
20491;SDS011;10404;51.468;6.762;2023-07-13T14:25:40;4.30;;;2.95;;
20491;SDS011;10404;51.468;6.762;2023-07-13T14:28:19;3.75;;;3.33;;
20491;SDS011;10404;51.468;6.762;2023-07-13T14:30:47;2.97;;;2.75;;
20491;SDS011;10404;51.468;6.762;2023-07-13T14:33:12;3.58;;;3.03;;
20491;SDS011;10404;51.468;6.762;2023-07-13T14:35:38;4.05;;;2.65;;
20491;SDS011;10404;51.468;6.762;2023-07-13T14:38:04;3.78;;;2.65;;
20491;SDS011;10404;51.468;6.762;2023-07-13T14:40:33;4.82;;;3.53;;
20491;SDS011;10404;51.468;6.762;2023-07-13T14:42:59;3.33;;;3.03;;
20491;SDS011;10404;51.468;6.762;2023-07-13T14:45:25;3.67;;;2.75;;
20491;SDS011;10404;51.468;6.762;2023-07-13T14:47:51;3.92;;;3.05;;
20491;SDS011;10404;51.468;6.762;2023-07-13T14:50:22;4.32;;;2.80;;
20491;SDS011;10404;51.468;6.762;2023-07-13T14:52:55;3.78;;;3.15;;
20491;SDS011;10404;51.468;6.762;2023-07-13T14:55:20;4.68;;;3.80;;
20491;SDS011;10404;51.468;6.762;2023-07-13T14:57:46;3.72;;;3.05;;
20491;SDS011;10404;51.468;6.762;2023-07-13T15:00:17;4.25;;;3.85;;
20491;SDS011;10404;51.468;6.762;2023-07-13T15:02:45;4.90;;;3.28;;
20491;SDS011;10404;51.468;6.762;2023-07-13T15:05:20;6.03;;;3.42;;
20491;SDS011;10404;51.468;6.762;2023-07-13T15:07:57;4.13;;;3.35;;
20491;SDS011;10404;51.468;6.762;2023-07-13T15:10:26;3.88;;;3.58;;
20491;SDS011;10404;51.468;6.762;2023-07-13T15:12:57;4.05;;;3.08;;
20491;SDS011;10404;51.468;6.762;2023-07-13T15:15:26;4.57;;;3.50;;
20491;SDS011;10404;51.468;6.762;2023-07-13T15:17:53;5.43;;;2.83;;
20491;SDS011;10404;51.468;6.762;2023-07-13T15:20:31;4.43;;;3.58;;
20491;SDS011;10404;51.468;6.762;2023-07-13T15:25:26;4.43;;;3.22;;
20491;SDS011;10404;51.468;6.762;2023-07-13T15:27:55;4.50;;;2.90;;
20491;SDS011;10404;51.468;6.762;2023-07-13T15:30:22;4.30;;;3.90;;
20491;SDS011;10404;51.468;6.762;2023-07-13T15:32:51;4.03;;;3.13;;
20491;SDS011;10404;51.468;6.762;2023-07-13T15:35:21;4.60;;;3.30;;
20491;SDS011;10404;51.468;6.762;2023-07-13T15:37:49;5.35;;;3.60;;
20491;SDS011;10404;51.468;6.762;2023-07-13T15:40:15;4.78;;;3.63;;
20491;SDS011;10404;51.468;6.762;2023-07-13T15:42:41;5.35;;;3.33;;
20491;SDS011;10404;51.468;6.762;2023-07-13T15:47:45;3.92;;;3.17;;
20491;SDS011;10404;51.468;6.762;2023-07-13T15:50:19;4.65;;;3.42;;
20491;SDS011;10404;51.468;6.762;2023-07-13T15:52:47;4.80;;;3.55;;
20491;SDS011;10404;51.468;6.762;2023-07-13T15:57:41;6.90;;;4.28;;